Aviation Digital Data Service (ADDS)

Output produced by METARs form (1131 UTC 19 January 2019)
found at http://www.aviationweather.gov/metar/data/
 
LPAR 191100Z 20005KT 4000 BR SCT005 BKN018 11/11 Q1018
TAF AMD LPAR 190913Z 1909/1918 VRB02KT 2500 BR BKN004 
     BECMG 1909/1911 24008KT 8000 -RADZ SCT004 BKN012 
     BECMG 1911/1913 26015KT 9000 NSW FEW005 BKN025 
     TEMPO 1914/1917 23017G27KT 4000 RA SCT009 BKN022
       
LPBJ 191100Z 22006KT 6000 BCFG BKN004 OVC012 10/10 Q1020
TAF LPBJ 191104Z 1912/2012 25010KT 9999 NSW SCT007 BKN015 
     PROB40 
     TEMPO 1912/1916 5000 -RADZ SCT005 BKN012 
     BECMG 1915/1918 8000 -RADZ BR SCT005 BKN015 
     TEMPO 1917/1921 2000 RADZ BR BKN004 
     BECMG 2001/2004 31012KT 9999 NSW SCT007 SCT020 
     TEMPO 2003/2012 30015G25KT
       
LPCS 191100Z 27010KT 9999 FEW012 BKN018 15/13 Q1018
TAF LPCS 191100Z 1912/1921 26012KT 9999 FEW008 BKN018 
     BECMG 1912/1914 6000 -RA SCT006 BKN012 
     TEMPO 1914/1917 2000 RADZ SCT002 BKN004 
     BECMG 1917/1919 29015KT 
     PROB30 
     TEMPO 1917/1921 30023G35KT
       
LPFR 191100Z 31004KT 9999 BKN036 14/11 Q1021
TAF LPFR 191100Z 1912/2012 27015KT 9999 SCT018 BKN035 
     TEMPO 1913/1921 27020G32KT 2000 RADZ BR SCT004 BKN008 
     BECMG 1921/1924 31013KT SCT020 
     PROB30 
     TEMPO 2000/2003 31017G27KT 8000 SHRA BKN015
       
LPFL 191100Z 21003KT 4000 -RA SCT007 BKN013 15/13 Q1030
LPHR 191100Z VRB03KT 9999 FEW010 BKN028 18/14 Q1030
TAF LPHR 191100Z 1912/1921 VRB05KT 9999 SCT012 BKN030 
     BECMG 1912/1915 02010KT 
     PROB30 
     TEMPO 1912/1918 6000 -RA SCT006 BKN012
       
LPLA 191100Z /////KT 4000 -RADZ BR BKN005 BKN015 15/15 Q1030
TAF LPLA 191103Z 1912/2012 35008KT 9999 FEW015 BKN025 
     PROB40 
     TEMPO 1912/1915 3000 -DZRA BR SCT005 BKN010 
     BECMG 1917/1919 VRB05KT SCT015 SCT025 
     BECMG 2004/2006 18008KT
       
LPPT 191100Z 28008KT 240V320 9999 FEW008 SCT014 15/13 Q1018
TAF LPPT 191100Z 1912/2018 28010KT 9999 FEW008 BKN015 
     BECMG 1912/1914 25013KT 5000 -RADZ BR SCT005 BKN012 
     TEMPO 1914/1917 2000 RADZ BR SCT001 BKN004 
     BECMG 1917/1920 30013KT 9999 NSW SCT015 BKN030 
     TEMPO 1920/1924 30018G28KT 6000 -RA SCT008 BKN015 
     BECMG 2000/2003 33015KT SCT018 
     PROB40 
     TEMPO 2003/2015 33020G32KT 8000 SHRA BKN015
       
LPMA 191100Z VRB04KT 9999 FEW015 BKN030 17/10 Q1030
TAF LPMA 191100Z 1912/2012 VRB05KT 9999 FEW015 BKN030 
     PROB30 1912/1918 20008KT 
     BECMG 1921/1924 SCT012 BKN025 
     PROB30 
     TEMPO 2000/2007 6000 -RADZ SCT008 BKN013 
     BECMG 2007/2009 01012KT SCT015
       
LPMR 191100Z 22005KT 190V260 6000 -DZ BKN008 OVC015 13/13 Q1017
TAF LPMR 191108Z 1912/2012 24012KT 5000 -RADZ BR SCT005 BKN015 
     TEMPO 1912/1922 3000 -RADZ BR SCT003 BKN012 
     TEMPO 1912/1916 23016G28KT 
     PROB40 
     TEMPO 1913/1916 1200 RADZ BR SCT002 BKN005 
     BECMG 1921/1924 33015KT 9999 NSW SCT010 
     TEMPO 1923/2006 33020G32KT
       
LPMT 191100Z 25004KT 200V290 9999 SCT023 15/15 Q1018
TAF LPMT 191105Z 1912/2012 26010KT 9999 SCT020 
     TEMPO 1914/1918 23015G27KT 5000 -RA BR SCT009 BKN022 
     PROB40 
     TEMPO 1915/1917 2000 RA BR SCT003 BKN010 
     BECMG 1920/1922 33012KT 9999 NSW SCT010 SCT035 
     PROB40 
     TEMPO 1920/1924 4000 -RA BR BKN008 
     TEMPO 2008/2012 34016G28KT
       
LPOV 191100Z 17007KT 6000 -RADZ SCT007 SCT012 BKN018 10/09 Q1014
TAF LPOV 191109Z 1912/2012 18012KT 6000 -RADZ SCT005 BKN015 
     TEMPO 1912/1918 20015G27KT 2000 RADZ BR SCT003 BKN007 
     BECMG 1914/1917 28013KT 
     PROB40 
     TEMPO 1914/1921 3000 RA SCT004 BKN012 
     BECMG 1920/1923 34015KT 9999 NSW SCT020 
     TEMPO 1921/2006 33018G30KT 
     BECMG 2006/2009 36010KT
       
LPPD 191100Z 28014KT 9999 FEW007 BKN014 17/16 Q1029
TAF LPPD 191100Z 1912/2012 28015KT 9999 SCT012 BKN025 
     PROB40 
     TEMPO 1912/1914 3000 -RADZ BR SCT002 BKN005 
     BECMG 1914/1917 03013KT SCT015 SCT035 
     TEMPO 1919/2012 SCT012 BKN030 
     BECMG 1921/1924 01007KT
       
LPPR 191100Z 18013KT 5000 -RADZ BR OVC005 11/11 Q1013
TAF LPPR 191100Z 1912/2012 18015KT 6000 -RA SCT004 BKN008 
     TEMPO 1912/1920 2000 RADZ BR SCT002 BKN004 
     PROB40 
     TEMPO 1912/1916 1200 DZRA BR SCT000 BKN002 
     BECMG 1913/1916 27015KT 
     BECMG 1920/1923 34012KT 9999 NSW SCT015 
     PROB40 
     TEMPO 1923/2012 35018G30KT 8000 SHRA BKN015
       
LPPS 191100Z 33010KT 9999 SCT015 BKN030 17/11 Q1030
TAF LPPS 191100Z 1912/2018 31012KT 9999 FEW015 BKN030 
     BECMG 1921/1924 SCT012 BKN020 
     TEMPO 2000/2006 3000 RADZ BR SCT004 BKN008 
     BECMG 2006/2009 36012KT SCT015 
     TEMPO 2009/2018 FEW015 BKN030
       
LPAZ 191100Z 28015KT 9999 FEW010 BKN032 17/15 Q1030
TAF LPAZ 191100Z 1912/2018 29015KT 9999 SCT012 BKN025 
     PROB30 
     TEMPO 1912/1917 3000 -RADZ BR SCT003 BKN006 
     BECMG 1917/1920 03008KT SCT015 SCT030 
     TEMPO 1920/2018 SCT012 BKN030